sensor_id;sensor_type;location;lat;lon;timestamp;pressure;altitude;pressure_sealevel;temperature;humidity
73624;BME280;61921;53.226;-1.296;2022-10-31T00:00:15;100343.92;;;12.67;91.02
73624;BME280;61921;53.226;-1.296;2022-10-31T00:02:40;100348.21;;;12.68;91.04
73624;BME280;61921;53.226;-1.296;2022-10-31T00:05:06;100345.75;;;12.71;91.05
73624;BME280;61921;53.226;-1.296;2022-10-31T00:07:31;100343.23;;;12.70;91.07
73624;BME280;61921;53.226;-1.296;2022-10-31T00:09:56;100345.39;;;12.68;91.30
73624;BME280;61921;53.226;-1.296;2022-10-31T00:12:21;100348.26;;;12.65;91.49
73624;BME280;61921;53.226;-1.296;2022-10-31T00:14:46;100346.09;;;12.63;91.50
73624;BME280;61921;53.226;-1.296;2022-10-31T00:17:11;100345.11;;;12.68;91.03
73624;BME280;61921;53.226;-1.296;2022-10-31T00:19:36;100343.73;;;12.60;91.48
73624;BME280;61921;53.226;-1.296;2022-10-31T00:22:01;100347.07;;;12.62;91.51
73624;BME280;61921;53.226;-1.296;2022-10-31T00:24:27;100346.37;;;12.64;91.40
73624;BME280;61921;53.226;-1.296;2022-10-31T00:26:52;100345.23;;;12.68;91.15
73624;BME280;61921;53.226;-1.296;2022-10-31T00:29:17;100350.00;;;12.63;91.38
73624;BME280;61921;53.226;-1.296;2022-10-31T00:31:42;100352.30;;;12.70;90.94
73624;BME280;61921;53.226;-1.296;2022-10-31T00:34:07;100348.79;;;12.70;90.76
73624;BME280;61921;53.226;-1.296;2022-10-31T00:36:32;100351.70;;;12.71;90.77
73624;BME280;61921;53.226;-1.296;2022-10-31T00:38:58;100349.75;;;12.66;90.92
73624;BME280;61921;53.226;-1.296;2022-10-31T00:41:23;100350.78;;;12.67;90.68
73624;BME280;61921;53.226;-1.296;2022-10-31T00:43:48;100351.80;;;12.66;90.58
73624;BME280;61921;53.226;-1.296;2022-10-31T00:46:14;100354.21;;;12.59;91.11
73624;BME280;61921;53.226;-1.296;2022-10-31T00:48:39;100357.68;;;12.61;90.94
73624;BME280;61921;53.226;-1.296;2022-10-31T00:51:05;100355.74;;;12.64;90.91
73624;BME280;61921;53.226;-1.296;2022-10-31T00:53:30;100354.92;;;12.62;91.03
73624;BME280;61921;53.226;-1.296;2022-10-31T00:55:55;100357.14;;;12.59;91.30
73624;BME280;61921;53.226;-1.296;2022-10-31T00:58:21;100361.20;;;12.58;91.70
73624;BME280;61921;53.226;-1.296;2022-10-31T01:00:47;100361.66;;;12.72;91.26
73624;BME280;61921;53.226;-1.296;2022-10-31T01:03:10;100363.38;;;12.82;90.82
73624;BME280;61921;53.226;-1.296;2022-10-31T01:05:36;100369.96;;;12.87;90.75
73624;BME280;61921;53.226;-1.296;2022-10-31T01:08:01;100374.19;;;12.92;90.85
73624;BME280;61921;53.226;-1.296;2022-10-31T01:10:26;100374.19;;;12.97;90.88
73624;BME280;61921;53.226;-1.296;2022-10-31T01:12:52;100373.59;;;12.96;90.95
73624;BME280;61921;53.226;-1.296;2022-10-31T01:15:19;100371.45;;;13.05;90.83
73624;BME280;61921;53.226;-1.296;2022-10-31T01:17:43;100372.52;;;13.17;90.25
73624;BME280;61921;53.226;-1.296;2022-10-31T01:20:11;100372.54;;;13.19;90.40
73624;BME280;61921;53.226;-1.296;2022-10-31T01:22:35;100369.66;;;13.24;90.06
73624;BME280;61921;53.226;-1.296;2022-10-31T01:25:01;100367.60;;;13.30;89.73
73624;BME280;61921;53.226;-1.296;2022-10-31T01:27:27;100366.88;;;13.33;89.48
73624;BME280;61921;53.226;-1.296;2022-10-31T01:29:53;100368.44;;;13.26;90.03
73624;BME280;61921;53.226;-1.296;2022-10-31T01:32:17;100370.31;;;13.19;90.52
73624;BME280;61921;53.226;-1.296;2022-10-31T01:34:44;100370.01;;;13.19;90.75
73624;BME280;61921;53.226;-1.296;2022-10-31T01:37:09;100370.14;;;13.26;90.60
73624;BME280;61921;53.226;-1.296;2022-10-31T01:39:34;100370.27;;;13.20;90.95
73624;BME280;61921;53.226;-1.296;2022-10-31T01:42:06;100369.44;;;13.30;90.59
73624;BME280;61921;53.226;-1.296;2022-10-31T01:46:55;100370.12;;;13.32;90.75
73624;BME280;61921;53.226;-1.296;2022-10-31T01:49:20;100369.91;;;13.33;90.55
73624;BME280;61921;53.226;-1.296;2022-10-31T01:51:46;100369.38;;;13.36;90.54
73624;BME280;61921;53.226;-1.296;2022-10-31T01:54:12;100370.71;;;13.36;90.40
73624;BME280;61921;53.226;-1.296;2022-10-31T01:56:36;100370.86;;;13.44;90.14
73624;BME280;61921;53.226;-1.296;2022-10-31T01:58:59;100373.93;;;13.51;89.91
73624;BME280;61921;53.226;-1.296;2022-10-31T02:01:24;100378.71;;;13.58;89.57
73624;BME280;61921;53.226;-1.296;2022-10-31T02:03:49;100381.50;;;13.61;89.46
73624;BME280;61921;53.226;-1.296;2022-10-31T02:06:22;100373.75;;;13.67;89.12
73624;BME280;61921;53.226;-1.296;2022-10-31T02:08:41;100374.05;;;13.73;88.86
73624;BME280;61921;53.226;-1.296;2022-10-31T02:11:06;100377.84;;;13.77;88.55
73624;BME280;61921;53.226;-1.296;2022-10-31T02:13:30;100381.86;;;13.66;89.03
73624;BME280;61921;53.226;-1.296;2022-10-31T02:15:58;100379.33;;;13.80;88.58
73624;BME280;61921;53.226;-1.296;2022-10-31T02:18:23;100381.13;;;13.83;88.22
73624;BME280;61921;53.226;-1.296;2022-10-31T02:20:56;100383.57;;;13.70;88.74
73624;BME280;61921;53.226;-1.296;2022-10-31T02:25:51;100389.94;;;13.65;89.02
73624;BME280;61921;53.226;-1.296;2022-10-31T02:28:20;100392.28;;;13.63;89.12
73624;BME280;61921;53.226;-1.296;2022-10-31T02:30:33;100396.04;;;13.64;89.15
73624;BME280;61921;53.226;-1.296;2022-10-31T02:33:00;100392.44;;;13.57;89.45
73624;BME280;61921;53.226;-1.296;2022-10-31T02:35:28;100385.52;;;13.58;89.30
73624;BME280;61921;53.226;-1.296;2022-10-31T02:37:48;100386.54;;;13.64;89.15
73624;BME280;61921;53.226;-1.296;2022-10-31T02:40:15;100387.00;;;13.66;89.10
73624;BME280;61921;53.226;-1.296;2022-10-31T02:42:39;100383.46;;;13.57;89.40
73624;BME280;61921;53.226;-1.296;2022-10-31T02:45:06;100377.49;;;13.49;89.81
73624;BME280;61921;53.226;-1.296;2022-10-31T02:47:28;100375.28;;;13.60;89.64
73624;BME280;61921;53.226;-1.296;2022-10-31T02:49:55;100373.66;;;13.56;89.58
73624;BME280;61921;53.226;-1.296;2022-10-31T02:52:18;100380.38;;;13.55;89.43
73624;BME280;61921;53.226;-1.296;2022-10-31T02:54:42;100375.16;;;13.55;89.49
73624;BME280;61921;53.226;-1.296;2022-10-31T02:57:07;100377.04;;;13.63;88.95
73624;BME280;61921;53.226;-1.296;2022-10-31T02:59:32;100376.08;;;13.55;89.22
73624;BME280;61921;53.226;-1.296;2022-10-31T03:02:16;100376.05;;;13.56;89.09
73624;BME280;61921;53.226;-1.296;2022-10-31T03:04:33;100379.16;;;13.57;89.13
73624;BME280;61921;53.226;-1.296;2022-10-31T03:06:54;100381.33;;;13.56;89.03
73624;BME280;61921;53.226;-1.296;2022-10-31T03:09:21;100376.71;;;13.43;89.40
73624;BME280;61921;53.226;-1.296;2022-10-31T03:11:44;100369.59;;;13.42;89.50
73624;BME280;61921;53.226;-1.296;2022-10-31T03:14:12;100367.76;;;13.42;89.48
73624;BME280;61921;53.226;-1.296;2022-10-31T03:16:38;100367.90;;;13.31;90.02
73624;BME280;61921;53.226;-1.296;2022-10-31T03:19:03;100367.30;;;13.29;90.32
73624;BME280;61921;53.226;-1.296;2022-10-31T03:21:26;100358.27;;;13.29;90.58
73624;BME280;61921;53.226;-1.296;2022-10-31T03:23:49;100355.94;;;13.25;91.02
73624;BME280;61921;53.226;-1.296;2022-10-31T03:26:14;100351.83;;;13.27;90.98
73624;BME280;61921;53.226;-1.296;2022-10-31T03:28:44;100347.78;;;13.29;91.04
73624;BME280;61921;53.226;-1.296;2022-10-31T03:31:06;100344.52;;;13.30;91.10
73624;BME280;61921;53.226;-1.296;2022-10-31T03:33:33;100345.54;;;13.31;91.18
73624;BME280;61921;53.226;-1.296;2022-10-31T03:35:58;100342.06;;;13.43;90.66
73624;BME280;61921;53.226;-1.296;2022-10-31T03:38:21;100339.53;;;13.43;90.63
73624;BME280;61921;53.226;-1.296;2022-10-31T03:40:47;100336.94;;;13.53;90.00
73624;BME280;61921;53.226;-1.296;2022-10-31T03:43:16;100332.46;;;13.58;89.64
73624;BME280;61921;53.226;-1.296;2022-10-31T03:45:41;100334.60;;;13.49;89.89
73624;BME280;61921;53.226;-1.296;2022-10-31T03:48:02;100337.61;;;13.39;90.30
73624;BME280;61921;53.226;-1.296;2022-10-31T03:50:35;100338.35;;;13.29;90.61
73624;BME280;61921;53.226;-1.296;2022-10-31T03:52:56;100336.46;;;13.35;90.58
73624;BME280;61921;53.226;-1.296;2022-10-31T03:55:19;100337.15;;;13.27;90.92
73624;BME280;61921;53.226;-1.296;2022-10-31T03:57:48;100339.12;;;13.31;90.80
73624;BME280;61921;53.226;-1.296;2022-10-31T04:00:11;100333.99;;;13.31;90.88
73624;BME280;61921;53.226;-1.296;2022-10-31T04:02:38;100341.20;;;13.30;90.82
73624;BME280;61921;53.226;-1.296;2022-10-31T04:05:00;100341.89;;;13.34;90.52
73624;BME280;61921;53.226;-1.296;2022-10-31T04:07:28;100343.07;;;13.33;90.68
73624;BME280;61921;53.226;-1.296;2022-10-31T04:09:52;100342.08;;;13.36;90.58
73624;BME280;61921;53.226;-1.296;2022-10-31T04:12:17;100341.98;;;13.31;90.75
73624;BME280;61921;53.226;-1.296;2022-10-31T04:14:46;100343.77;;;13.21;91.40
73624;BME280;61921;53.226;-1.296;2022-10-31T04:17:10;100337.55;;;13.18;91.61
73624;BME280;61921;53.226;-1.296;2022-10-31T04:19:33;100336.06;;;13.20;91.83
73624;BME280;61921;53.226;-1.296;2022-10-31T04:21:58;100336.40;;;13.18;91.94
73624;BME280;61921;53.226;-1.296;2022-10-31T04:24:24;100341.17;;;13.25;91.72
73624;BME280;61921;53.226;-1.296;2022-10-31T04:26:49;100342.86;;;13.32;91.28
73624;BME280;61921;53.226;-1.296;2022-10-31T04:29:15;100346.67;;;13.27;91.62
73624;BME280;61921;53.226;-1.296;2022-10-31T04:31:40;100350.82;;;13.35;91.08
73624;BME280;61921;53.226;-1.296;2022-10-31T04:34:06;100350.69;;;13.30;91.10
73624;BME280;61921;53.226;-1.296;2022-10-31T04:36:32;100350.89;;;13.29;91.26
73624;BME280;61921;53.226;-1.296;2022-10-31T04:38:56;100350.01;;;13.31;91.14
73624;BME280;61921;53.226;-1.296;2022-10-31T04:41:21;100347.30;;;13.33;91.01
73624;BME280;61921;53.226;-1.296;2022-10-31T04:43:47;100346.50;;;13.43;90.75
73624;BME280;61921;53.226;-1.296;2022-10-31T04:46:12;100341.76;;;13.43;90.76
73624;BME280;61921;53.226;-1.296;2022-10-31T04:48:37;100339.04;;;13.43;90.68
73624;BME280;61921;53.226;-1.296;2022-10-31T04:51:03;100335.09;;;13.45;90.43
73624;BME280;61921;53.226;-1.296;2022-10-31T04:53:28;100333.95;;;13.47;90.48
73624;BME280;61921;53.226;-1.296;2022-10-31T04:55:54;100324.79;;;13.50;90.43
73624;BME280;61921;53.226;-1.296;2022-10-31T04:58:19;100321.88;;;13.62;89.71
73624;BME280;61921;53.226;-1.296;2022-10-31T05:00:44;100323.20;;;13.53;89.97
73624;BME280;61921;53.226;-1.296;2022-10-31T05:03:10;100315.43;;;13.61;89.62
73624;BME280;61921;53.226;-1.296;2022-10-31T05:05:35;100317.17;;;13.42;90.18
73624;BME280;61921;53.226;-1.296;2022-10-31T05:08:00;100313.01;;;13.44;89.94
73624;BME280;61921;53.226;-1.296;2022-10-31T05:10:27;100309.59;;;13.31;90.75
73624;BME280;61921;53.226;-1.296;2022-10-31T05:12:52;100304.83;;;13.34;90.76
73624;BME280;61921;53.226;-1.296;2022-10-31T05:15:17;100300.66;;;13.40;90.52
73624;BME280;61921;53.226;-1.296;2022-10-31T05:17:42;100297.98;;;13.40;90.51
73624;BME280;61921;53.226;-1.296;2022-10-31T05:20:08;100294.08;;;13.31;91.10
73624;BME280;61921;53.226;-1.296;2022-10-31T05:22:34;100298.52;;;13.30;91.21
73624;BME280;61921;53.226;-1.296;2022-10-31T05:24:59;100301.86;;;13.35;90.99
73624;BME280;61921;53.226;-1.296;2022-10-31T05:27:24;100297.19;;;13.35;91.09
73624;BME280;61921;53.226;-1.296;2022-10-31T05:29:49;100292.19;;;13.44;90.70
73624;BME280;61921;53.226;-1.296;2022-10-31T05:32:15;100286.24;;;13.53;90.31
73624;BME280;61921;53.226;-1.296;2022-10-31T05:34:40;100284.89;;;13.57;90.29
73624;BME280;61921;53.226;-1.296;2022-10-31T05:37:05;100280.67;;;13.57;90.05
73624;BME280;61921;53.226;-1.296;2022-10-31T05:39:31;100283.79;;;13.45;90.54
73624;BME280;61921;53.226;-1.296;2022-10-31T05:41:56;100282.59;;;13.56;90.17
73624;BME280;61921;53.226;-1.296;2022-10-31T05:44:27;100278.79;;;13.46;90.27
73624;BME280;61921;53.226;-1.296;2022-10-31T05:46:47;100285.71;;;13.56;90.18
73624;BME280;61921;53.226;-1.296;2022-10-31T05:49:12;100283.68;;;13.64;89.61
73624;BME280;61921;53.226;-1.296;2022-10-31T05:51:37;100280.81;;;13.59;89.52
73624;BME280;61921;53.226;-1.296;2022-10-31T05:54:03;100284.92;;;13.56;89.55
73624;BME280;61921;53.226;-1.296;2022-10-31T05:56:29;100281.40;;;13.52;89.66
73624;BME280;61921;53.226;-1.296;2022-10-31T05:58:54;100281.63;;;13.49;89.51
73624;BME280;61921;53.226;-1.296;2022-10-31T06:01:19;100284.63;;;13.34;89.78
73624;BME280;61921;53.226;-1.296;2022-10-31T06:03:44;100285.02;;;13.40;89.39
73624;BME280;61921;53.226;-1.296;2022-10-31T06:06:09;100287.17;;;13.30;89.82
73624;BME280;61921;53.226;-1.296;2022-10-31T06:08:35;100287.51;;;13.22;90.14
73624;BME280;61921;53.226;-1.296;2022-10-31T06:11:00;100291.95;;;13.18;90.33
73624;BME280;61921;53.226;-1.296;2022-10-31T06:13:26;100291.39;;;12.99;91.92
73624;BME280;61921;53.226;-1.296;2022-10-31T06:15:51;100288.70;;;13.01;92.11
73624;BME280;61921;53.226;-1.296;2022-10-31T06:18:17;100291.64;;;13.04;92.11
73624;BME280;61921;53.226;-1.296;2022-10-31T06:20:47;100293.93;;;13.09;92.32
73624;BME280;61921;53.226;-1.296;2022-10-31T06:23:07;100293.28;;;13.09;92.53
73624;BME280;61921;53.226;-1.296;2022-10-31T06:25:33;100292.90;;;13.17;92.39
73624;BME280;61921;53.226;-1.296;2022-10-31T06:27:57;100290.21;;;13.23;92.13
73624;BME280;61921;53.226;-1.296;2022-10-31T06:30:23;100286.69;;;13.34;91.69
73624;BME280;61921;53.226;-1.296;2022-10-31T06:32:49;100286.14;;;13.43;91.30
73624;BME280;61921;53.226;-1.296;2022-10-31T06:35:14;100287.54;;;13.52;90.88
73624;BME280;61921;53.226;-1.296;2022-10-31T06:37:39;100280.48;;;13.59;90.44
73624;BME280;61921;53.226;-1.296;2022-10-31T06:40:05;100280.30;;;13.52;90.53
73624;BME280;61921;53.226;-1.296;2022-10-31T06:42:30;100278.41;;;13.58;90.38
73624;BME280;61921;53.226;-1.296;2022-10-31T06:44:55;100281.58;;;13.65;90.10
73624;BME280;61921;53.226;-1.296;2022-10-31T06:47:20;100280.52;;;13.63;90.03
73624;BME280;61921;53.226;-1.296;2022-10-31T06:49:47;100280.11;;;13.70;89.63
73624;BME280;61921;53.226;-1.296;2022-10-31T06:52:17;100281.02;;;13.78;88.93
73624;BME280;61921;53.226;-1.296;2022-10-31T06:54:37;100277.67;;;13.69;89.32
73624;BME280;61921;53.226;-1.296;2022-10-31T06:57:03;100277.39;;;13.73;89.36
73624;BME280;61921;53.226;-1.296;2022-10-31T06:59:28;100276.62;;;13.66;89.41
73624;BME280;61921;53.226;-1.296;2022-10-31T07:01:53;100278.92;;;13.65;89.44
73624;BME280;61921;53.226;-1.296;2022-10-31T07:04:19;100279.37;;;13.65;89.66
73624;BME280;61921;53.226;-1.296;2022-10-31T07:06:44;100278.00;;;13.61;89.62
73624;BME280;61921;53.226;-1.296;2022-10-31T07:09:09;100276.74;;;13.78;89.07
73624;BME280;61921;53.226;-1.296;2022-10-31T07:11:34;100279.14;;;13.74;89.06
73624;BME280;61921;53.226;-1.296;2022-10-31T07:14:00;100279.40;;;13.78;89.01
73624;BME280;61921;53.226;-1.296;2022-10-31T07:16:25;100277.52;;;13.76;88.90
73624;BME280;61921;53.226;-1.296;2022-10-31T07:18:50;100277.52;;;13.86;88.69
73624;BME280;61921;53.226;-1.296;2022-10-31T07:21:16;100280.70;;;13.92;88.17
73624;BME280;61921;53.226;-1.296;2022-10-31T07:23:41;100273.78;;;13.84;88.34
73624;BME280;61921;53.226;-1.296;2022-10-31T07:26:08;100274.86;;;13.98;88.07
73624;BME280;61921;53.226;-1.296;2022-10-31T07:28:32;100274.86;;;13.91;88.06
73624;BME280;61921;53.226;-1.296;2022-10-31T07:30:57;100275.24;;;13.86;88.35
73624;BME280;61921;53.226;-1.296;2022-10-31T07:33:23;100271.40;;;13.99;88.03
73624;BME280;61921;53.226;-1.296;2022-10-31T07:35:47;100275.16;;;13.90;88.38
73624;BME280;61921;53.226;-1.296;2022-10-31T07:38:14;100277.00;;;13.94;88.07
73624;BME280;61921;53.226;-1.296;2022-10-31T07:40:39;100280.16;;;13.88;88.19
73624;BME280;61921;53.226;-1.296;2022-10-31T07:43:04;100283.05;;;13.80;88.54
73624;BME280;61921;53.226;-1.296;2022-10-31T07:45:29;100279.30;;;13.86;88.65
73624;BME280;61921;53.226;-1.296;2022-10-31T07:47:55;100278.21;;;13.92;88.58
73624;BME280;61921;53.226;-1.296;2022-10-31T07:50:21;100282.92;;;13.93;88.18
73624;BME280;61921;53.226;-1.296;2022-10-31T07:52:45;100282.31;;;13.80;88.67
73624;BME280;61921;53.226;-1.296;2022-10-31T07:55:11;100286.62;;;13.80;88.70
73624;BME280;61921;53.226;-1.296;2022-10-31T07:57:36;100287.38;;;13.69;89.30
73624;BME280;61921;53.226;-1.296;2022-10-31T08:00:02;100284.09;;;13.76;89.01
73624;BME280;61921;53.226;-1.296;2022-10-31T08:02:27;100286.15;;;13.75;89.09
73624;BME280;61921;53.226;-1.296;2022-10-31T08:04:54;100287.28;;;13.89;89.02
73624;BME280;61921;53.226;-1.296;2022-10-31T08:07:18;100287.94;;;14.03;88.36
73624;BME280;61921;53.226;-1.296;2022-10-31T08:09:43;100290.14;;;14.12;87.28
73624;BME280;61921;53.226;-1.296;2022-10-31T08:12:13;100293.42;;;14.19;87.31
73624;BME280;61921;53.226;-1.296;2022-10-31T08:14:34;100292.73;;;14.29;86.79
73624;BME280;61921;53.226;-1.296;2022-10-31T08:17:00;100300.11;;;14.28;86.25
73624;BME280;61921;53.226;-1.296;2022-10-31T08:19:25;100299.70;;;14.18;86.36
73624;BME280;61921;53.226;-1.296;2022-10-31T08:21:51;100298.43;;;14.09;87.25
73624;BME280;61921;53.226;-1.296;2022-10-31T08:24:15;100306.65;;;14.08;87.37
73624;BME280;61921;53.226;-1.296;2022-10-31T08:26:41;100302.58;;;14.07;87.35
73624;BME280;61921;53.226;-1.296;2022-10-31T08:29:06;100299.64;;;14.12;87.22
73624;BME280;61921;53.226;-1.296;2022-10-31T08:31:31;100297.86;;;14.24;86.88
73624;BME280;61921;53.226;-1.296;2022-10-31T08:33:57;100293.10;;;14.24;86.85
73624;BME280;61921;53.226;-1.296;2022-10-31T08:36:22;100290.00;;;14.42;86.36
73624;BME280;61921;53.226;-1.296;2022-10-31T08:38:48;100285.96;;;14.53;86.32
73624;BME280;61921;53.226;-1.296;2022-10-31T08:41:13;100289.89;;;14.49;86.17
73624;BME280;61921;53.226;-1.296;2022-10-31T08:43:39;100287.41;;;14.45;86.01
73624;BME280;61921;53.226;-1.296;2022-10-31T08:46:05;100294.63;;;14.46;85.93
73624;BME280;61921;53.226;-1.296;2022-10-31T08:48:30;100292.61;;;14.37;86.33
73624;BME280;61921;53.226;-1.296;2022-10-31T08:50:56;100290.86;;;14.35;86.67
73624;BME280;61921;53.226;-1.296;2022-10-31T08:53:20;100287.84;;;14.41;86.74
73624;BME280;61921;53.226;-1.296;2022-10-31T08:55:46;100286.94;;;14.44;86.31
73624;BME280;61921;53.226;-1.296;2022-10-31T08:58:13;100284.52;;;14.65;85.84
73624;BME280;61921;53.226;-1.296;2022-10-31T09:00:37;100285.16;;;14.67;85.44
73624;BME280;61921;53.226;-1.296;2022-10-31T09:03:04;100281.27;;;14.63;85.53
73624;BME280;61921;53.226;-1.296;2022-10-31T09:05:28;100280.95;;;14.68;85.59
73624;BME280;61921;53.226;-1.296;2022-10-31T09:07:56;100279.40;;;14.64;85.54
73624;BME280;61921;53.226;-1.296;2022-10-31T09:10:19;100278.95;;;14.65;85.23
73624;BME280;61921;53.226;-1.296;2022-10-31T09:12:43;100278.84;;;14.65;85.77
73624;BME280;61921;53.226;-1.296;2022-10-31T09:15:09;100276.08;;;14.74;85.43
73624;BME280;61921;53.226;-1.296;2022-10-31T09:17:35;100276.49;;;14.77;85.25
73624;BME280;61921;53.226;-1.296;2022-10-31T09:20:00;100277.24;;;14.67;85.92
73624;BME280;61921;53.226;-1.296;2022-10-31T09:22:25;100276.98;;;14.91;85.41
73624;BME280;61921;53.226;-1.296;2022-10-31T09:24:56;100274.93;;;14.98;84.99
73624;BME280;61921;53.226;-1.296;2022-10-31T09:27:16;100276.20;;;14.88;84.53
73624;BME280;61921;53.226;-1.296;2022-10-31T09:29:42;100277.30;;;15.03;84.38
73624;BME280;61921;53.226;-1.296;2022-10-31T09:32:08;100277.22;;;15.09;84.12
73624;BME280;61921;53.226;-1.296;2022-10-31T09:34:33;100278.14;;;14.83;84.47
73624;BME280;61921;53.226;-1.296;2022-10-31T09:36:58;100272.17;;;14.91;84.65
73624;BME280;61921;53.226;-1.296;2022-10-31T09:39:23;100266.72;;;14.93;84.34
73624;BME280;61921;53.226;-1.296;2022-10-31T09:42:02;100263.03;;;15.06;84.25
73624;BME280;61921;53.226;-1.296;2022-10-31T09:44:20;100261.83;;;14.95;83.26
73624;BME280;61921;53.226;-1.296;2022-10-31T09:46:46;100249.02;;;14.87;83.95
73624;BME280;61921;53.226;-1.296;2022-10-31T09:51:33;100242.59;;;15.20;83.43
73624;BME280;61921;53.226;-1.296;2022-10-31T09:53:59;100246.54;;;15.50;82.71
73624;BME280;61921;53.226;-1.296;2022-10-31T09:56:25;100244.81;;;15.49;81.90
73624;BME280;61921;53.226;-1.296;2022-10-31T09:58:48;100241.14;;;15.73;81.23
73624;BME280;61921;53.226;-1.296;2022-10-31T10:01:25;100245.44;;;15.51;81.20
73624;BME280;61921;53.226;-1.296;2022-10-31T10:03:41;100248.69;;;15.63;80.81
73624;BME280;61921;53.226;-1.296;2022-10-31T10:06:11;100250.06;;;15.66;80.52
73624;BME280;61921;53.226;-1.296;2022-10-31T10:08:32;100250.21;;;15.62;80.95
73624;BME280;61921;53.226;-1.296;2022-10-31T10:10:57;100252.65;;;15.58;81.31
73624;BME280;61921;53.226;-1.296;2022-10-31T10:13:36;100250.49;;;15.70;81.03
73624;BME280;61921;53.226;-1.296;2022-10-31T10:16:00;100253.48;;;15.47;80.84
73624;BME280;61921;53.226;-1.296;2022-10-31T10:18:20;100255.40;;;15.64;80.74
73624;BME280;61921;53.226;-1.296;2022-10-31T10:20:39;100250.40;;;15.51;80.77
73624;BME280;61921;53.226;-1.296;2022-10-31T10:23:13;100250.25;;;15.64;81.02
73624;BME280;61921;53.226;-1.296;2022-10-31T10:25:31;100246.79;;;15.78;80.32
73624;BME280;61921;53.226;-1.296;2022-10-31T10:28:02;100248.63;;;15.91;80.01
73624;BME280;61921;53.226;-1.296;2022-10-31T10:30:18;100249.78;;;15.92;79.16
73624;BME280;61921;53.226;-1.296;2022-10-31T10:32:44;100248.91;;;15.98;79.39
73624;BME280;61921;53.226;-1.296;2022-10-31T10:35:14;100246.70;;;16.12;78.87
73624;BME280;61921;53.226;-1.296;2022-10-31T10:37:35;100242.27;;;16.03;78.56
73624;BME280;61921;53.226;-1.296;2022-10-31T10:40:06;100235.14;;;15.96;78.54
73624;BME280;61921;53.226;-1.296;2022-10-31T10:42:26;100237.08;;;15.88;78.16
73624;BME280;61921;53.226;-1.296;2022-10-31T10:44:48;100230.96;;;15.84;78.13
73624;BME280;61921;53.226;-1.296;2022-10-31T10:47:13;100234.75;;;15.99;78.59
73624;BME280;61921;53.226;-1.296;2022-10-31T10:49:43;100237.35;;;16.13;77.70
73624;BME280;61921;53.226;-1.296;2022-10-31T10:52:11;100223.23;;;16.16;77.82
73624;BME280;61921;53.226;-1.296;2022-10-31T10:54:39;100219.05;;;16.15;77.27
73624;BME280;61921;53.226;-1.296;2022-10-31T10:57:02;100215.90;;;15.84;77.68
73624;BME280;61921;53.226;-1.296;2022-10-31T10:59:21;100216.46;;;15.98;78.12
73624;BME280;61921;53.226;-1.296;2022-10-31T11:01:47;100219.12;;;16.08;77.79
73624;BME280;61921;53.226;-1.296;2022-10-31T11:04:24;100213.91;;;15.96;77.52
73624;BME280;61921;53.226;-1.296;2022-10-31T11:06:36;100214.84;;;16.01;77.34
73624;BME280;61921;53.226;-1.296;2022-10-31T11:09:08;100212.24;;;16.05;77.54
73624;BME280;61921;53.226;-1.296;2022-10-31T11:11:29;100204.93;;;16.13;77.30
73624;BME280;61921;53.226;-1.296;2022-10-31T11:14:02;100200.10;;;16.21;76.81
73624;BME280;61921;53.226;-1.296;2022-10-31T11:16:28;100199.17;;;16.15;76.84
73624;BME280;61921;53.226;-1.296;2022-10-31T11:18:46;100198.12;;;16.42;76.05
73624;BME280;61921;53.226;-1.296;2022-10-31T11:23:34;100190.55;;;16.53;75.39
73624;BME280;61921;53.226;-1.296;2022-10-31T11:26:06;100186.44;;;16.82;76.39
73624;BME280;61921;53.226;-1.296;2022-10-31T11:28:27;100183.12;;;17.04;74.92
73624;BME280;61921;53.226;-1.296;2022-10-31T11:30:54;100178.80;;;17.18;73.55
73624;BME280;61921;53.226;-1.296;2022-10-31T11:33:20;100172.25;;;17.68;73.92
73624;BME280;61921;53.226;-1.296;2022-10-31T11:35:42;100167.45;;;17.77;70.61
73624;BME280;61921;53.226;-1.296;2022-10-31T11:38:07;100163.51;;;17.67;69.84
73624;BME280;61921;53.226;-1.296;2022-10-31T11:40:32;100163.75;;;17.38;70.71
73624;BME280;61921;53.226;-1.296;2022-10-31T11:43:03;100161.62;;;17.55;70.88
73624;BME280;61921;53.226;-1.296;2022-10-31T11:45:30;100153.00;;;17.55;70.19
73624;BME280;61921;53.226;-1.296;2022-10-31T11:47:50;100143.67;;;17.34;70.38
73624;BME280;61921;53.226;-1.296;2022-10-31T11:50:20;100135.96;;;17.47;70.26
73624;BME280;61921;53.226;-1.296;2022-10-31T11:52:40;100139.98;;;17.41;69.63
73624;BME280;61921;53.226;-1.296;2022-10-31T11:55:15;100139.66;;;17.41;69.73
73624;BME280;61921;53.226;-1.296;2022-10-31T11:57:32;100135.96;;;17.27;70.45
73624;BME280;61921;53.226;-1.296;2022-10-31T11:59:56;100135.71;;;17.56;70.75
73624;BME280;61921;53.226;-1.296;2022-10-31T12:02:20;100132.37;;;17.53;70.73
73624;BME280;61921;53.226;-1.296;2022-10-31T12:04:50;100132.32;;;17.60;70.81
73624;BME280;61921;53.226;-1.296;2022-10-31T12:07:11;100122.83;;;17.55;69.98
73624;BME280;61921;53.226;-1.296;2022-10-31T12:09:37;100115.81;;;17.71;69.93
73624;BME280;61921;53.226;-1.296;2022-10-31T12:12:14;100114.82;;;17.70;69.80
73624;BME280;61921;53.226;-1.296;2022-10-31T12:14:34;100106.60;;;17.65;69.72
73624;BME280;61921;53.226;-1.296;2022-10-31T12:16:57;100105.60;;;17.87;70.50
73624;BME280;61921;53.226;-1.296;2022-10-31T12:19:26;100100.69;;;18.16;70.48
73624;BME280;61921;53.226;-1.296;2022-10-31T12:21:53;100100.22;;;18.13;69.19
73624;BME280;61921;53.226;-1.296;2022-10-31T12:24:16;100099.84;;;18.12;69.25
73624;BME280;61921;53.226;-1.296;2022-10-31T12:26:39;100101.70;;;18.04;68.90
73624;BME280;61921;53.226;-1.296;2022-10-31T12:29:07;100094.92;;;18.06;68.62
73624;BME280;61921;53.226;-1.296;2022-10-31T12:31:36;100087.84;;;17.96;68.18
73624;BME280;61921;53.226;-1.296;2022-10-31T12:33:56;100081.03;;;17.76;68.88
73624;BME280;61921;53.226;-1.296;2022-10-31T12:36:27;100076.71;;;17.56;69.93
73624;BME280;61921;53.226;-1.296;2022-10-31T12:38:52;100071.79;;;17.25;70.09